• Join FlightAware (Why Join?)
  • Login
  • US Flag 
12:03AM EDT


 

Airport Tracker/Info


-or-


 

Live Flight TrackerFlight Track Log ✈ KAP66 ✈ 02-May-2013 ✈ KBOS - KACK

Flight Track Log - Related Links

Times and Time Zones

All times are in EDT time to prevent confusion due to time zone crossing. See the KAP66 flight status page for this flight to view local times or setup timezone preferences in your user account.

Time Position Orientation Groundspeed Altitude Reporting Facility
EDT Latitude Longitude Course Direction KTS MPH feet Rate Location/Type
04:26PM 42.3500 -70.9500 124° Southeast 119 137 900  Level KA90
04:27PM 42.3333 -70.9167 124° Southeast 127 146 1,000  Climbing KA90
04:28PM 42.3167 -70.8667 114° Southeast 132 152 900  Descending KA90
04:29PM 42.3000 -70.8167 114° Southeast 136 157 1,000 60 Climbing KA90
04:31PM 42.2629 -70.7388 114° Southeast  Level FlightAware Approximate
04:38PM 42.1384 -70.3970 116° Southeast  Level FlightAware Approximate
04:39PM 42.1215 -70.3477 114° Southeast  Level FlightAware Approximate
04:40PM 42.1050 -70.2981 114° Southeast  Level FlightAware Approximate
04:41PM 42.0886 -70.2485 114° Southeast  Level FlightAware Approximate
04:42PM 42.0720 -70.1989 114° Southeast  Level FlightAware Approximate
04:43PM 42.0555 -70.1494 114° Southeast  Level FlightAware Approximate
04:44PM 42.0390 -70.0999 114° Southeast  Level FlightAware Approximate
04:45PM 42.0224 -70.0504 114° Southeast  Level FlightAware Approximate
04:46PM 41.9903 -70.0333 180° South  Level FlightAware Approximate
04:47PM 41.9500 -70.0333 180° South  Level FlightAware Approximate
04:48PM 41.9097 -70.0333 180° South  Level FlightAware Approximate
04:49PM 41.8694 -70.0333 180° South  Level FlightAware Approximate
04:50PM 41.8290 -70.0333 180° South  Level FlightAware Approximate
04:51PM 41.7887 -70.0333 180° South  Level FlightAware Approximate
04:52PM 41.7484 -70.0333 180° South  Level FlightAware Approximate
04:53PM 41.7081 -70.0333 180° South  Level FlightAware Approximate
04:54PM 41.6678 -70.0333 180° South  Level FlightAware Approximate
04:55PM 41.6275 -70.0333 180° South  Level FlightAware Approximate
04:56PM 41.5873 -70.0359 189° South  Level FlightAware Approximate
04:57PM 41.5474 -70.0439 189° South  Level FlightAware Approximate
04:58PM 41.5075 -70.0500 180° South  Level FlightAware Approximate
04:59PM 41.4672 -70.0500 180° South  Level FlightAware Approximate
05:00PM 41.4268 -70.0500 180° South  Level FlightAware Approximate
05:01PM 41.3865 -70.0500 180° South  Level FlightAware Approximate
05:02PM 41.3462 -70.0500 180° South  Level FlightAware Approximate
05:03PM 41.3059 -70.0500 180° South  Level FlightAware Approximate
05:04PM 41.2656 -70.0500 180° South  Level FlightAware Approximate
05:05PM 41.2500 -70.0500 180° South  Level FlightAware Approximate
05:06PM 41.2531 -70.0603 180° South  Level Estimated
05:07PM 41.2531 -70.0603 180° South  Level Estimated
05:08PM 41.2531 -70.0603 180° South  Level Estimated
05:09PM 41.2531 -70.0603 180° South  Level Estimated
05:10PM 41.2531 -70.0603 180° South  Level Estimated
05:11PM 41.2531 -70.0603 180° South  Level Estimated
05:12PM 41.2531 -70.0603 180° South  Level Estimated
05:13PM 41.2531 -70.0603 180° South  Level Estimated